map of HAN home
HAN - Airport
Location
City:  Hanoi, Vietnam
Name:Noi Bai International Airport
ICAO:VVNB
IATA:HAN

Details
Type:Airport (Aerodrome, Airfield)
Use:Public/Civil, Military, International (customs port of entry)
Latitude:2113'16"N (21.221192)
Longitude:10548'26"E (105.807178)
Datum:WGS 1984
Elevation:39 ft (12 m)
Variation:1.46W (WMM2015 magnetic declination)
-0.02 annual change
Runways:2
Longest:12466 × 148 ft (3800 × 45 m), paved

Time
Time Zone:UTC+7
Local Time:

Weather
METAR:VVNB 232230Z 03010KT 9999 BKN030 16/09 Q1021 NOSIG
TAF:VVNB 231700Z 2318/2418 07010KT 9999 BKN030

Related Locations
Nearby:
Farthest:IQQ: 12184 mi / 19608 km
Iquique [Diego Aracena Intl], TA, CL

Find:

   beyond  
but within

Other Information
Maps:
NOTAMs:
Links:
Sources:

  
flag of Vietnam   

Sectional Chart

Flight Planning
at skyvector.com

Satellite Image

Google Maps Satellite view

 

Copyright © 2004-2017 Karl L. Swartz. All rights reserved.
The Great Circle Mapper name and logo are trademarks of the Great Circle Mapper.
All other trademarks mentioned herein belong to their respective owners.
Please see credits for attibutions and further copyright information.

  Follow gcmap on Facebook Follow gcmap on Twitter Follow gcmap on Google+ GCmap on LinkedIn

hCard Microformat

Geo Microformat